createdAt,value
2018-08-20T00:01:26.485Z,23.3
2018-08-20T00:11:29.141Z,20.4
2018-08-20T00:21:32.714Z,23.8
2018-08-20T00:31:26.061Z,24.0
2018-08-20T00:41:26.278Z,21.5
2018-08-20T00:51:26.391Z,21.2
2018-08-20T01:01:28.095Z,20.2
2018-08-20T01:11:26.066Z,21.7
2018-08-20T01:21:26.224Z,20.5
2018-08-20T01:31:27.968Z,29.3
2018-08-20T01:41:27.780Z,24.5
2018-08-20T01:51:25.777Z,23.5
2018-08-20T02:01:27.213Z,25.0
2018-08-20T02:11:27.750Z,23.5
2018-08-20T02:21:26.764Z,22.3
2018-08-20T02:31:26.253Z,27.9
2018-08-20T02:41:27.873Z,23.8
2018-08-20T02:51:26.962Z,27.1
2018-08-20T03:01:26.039Z,22.2
2018-08-20T03:11:26.593Z,29.5
2018-08-20T03:21:27.475Z,25.9
2018-08-20T03:31:27.725Z,26.0
2018-08-20T03:41:25.528Z,24.8
2018-08-20T03:51:26.522Z,26.6
2018-08-20T04:01:28.423Z,27.7
2018-08-20T04:11:26.506Z,26.1
2018-08-20T04:21:25.939Z,21.6
2018-08-20T04:31:26.125Z,24.4
2018-08-20T04:41:26.160Z,23.9
2018-08-20T04:51:29.095Z,31.6
2018-08-20T05:01:26.021Z,26.8
2018-08-20T05:11:26.579Z,27.3
2018-08-20T05:21:25.736Z,25.8
2018-08-20T05:31:26.559Z,27.8
2018-08-20T05:41:26.792Z,29.8
2018-08-20T05:51:27.325Z,29.6
2018-08-20T06:01:27.034Z,36.3
2018-08-20T06:11:26.510Z,26.1
2018-08-20T06:21:26.314Z,24.7
2018-08-20T06:31:26.247Z,21.0
2018-08-20T06:41:26.607Z,20.0
2018-08-20T06:51:26.072Z,23.0
2018-08-20T07:01:27.659Z,26.8
2018-08-20T07:11:28.346Z,23.6
2018-08-20T07:21:26.574Z,26.9
2018-08-20T07:31:26.488Z,27.3
2018-08-20T07:41:26.979Z,25.8
2018-08-20T07:51:27.062Z,21.7
2018-08-20T08:01:26.084Z,23.3
2018-08-20T08:11:26.925Z,20.4
2018-08-20T08:21:27.441Z,19.2
2018-08-20T08:31:27.497Z,18.2
2018-08-20T08:41:26.533Z,16.5
2018-08-20T08:51:26.606Z,16.6
2018-08-20T09:01:26.522Z,18.1
2018-08-20T09:11:26.816Z,14.1
2018-08-20T09:21:26.592Z,15.9
2018-08-20T09:31:27.110Z,13.3
2018-08-20T09:41:26.125Z,11.4
2018-08-20T09:51:28.136Z,9.3
2018-08-20T10:01:26.505Z,7.5
2018-08-20T10:11:26.719Z,8.1
2018-08-20T10:21:26.846Z,10.3
2018-08-20T10:31:26.465Z,10.6
2018-08-20T10:41:29.019Z,8.3
2018-08-20T10:51:26.755Z,6.0
2018-08-20T11:01:26.059Z,6.7
2018-08-20T11:11:27.060Z,10.8
2018-08-20T11:21:26.354Z,5.7
2018-08-20T11:31:26.741Z,7.3
2018-08-20T11:41:28.964Z,8.5
2018-08-20T11:51:28.055Z,9.4
2018-08-20T12:01:27.002Z,8.1
2018-08-20T12:11:27.611Z,6.2
2018-08-20T12:21:26.418Z,7.8
2018-08-20T12:31:26.974Z,7.2
2018-08-20T12:41:26.786Z,7.9
2018-08-20T12:51:26.223Z,10.7
2018-08-20T13:01:27.710Z,10.6
2018-08-20T13:11:25.838Z,9.0
2018-08-20T13:21:26.923Z,8.9
2018-08-20T13:31:25.993Z,6.2
2018-08-20T13:41:31.766Z,6.3
2018-08-20T13:51:25.726Z,8.0
2018-08-20T14:01:26.957Z,6.8
2018-08-20T14:11:27.480Z,7.7
2018-08-20T14:21:26.786Z,11.1
2018-08-20T14:31:26.017Z,8.4
2018-08-20T14:41:26.358Z,7.1
2018-08-20T14:51:27.010Z,10.1
2018-08-20T15:01:26.369Z,5.4
2018-08-20T15:11:26.751Z,7.1
2018-08-20T15:21:26.673Z,8.3
2018-08-20T15:31:25.686Z,7.1
2018-08-20T15:41:26.746Z,7.9
2018-08-20T15:51:30.138Z,12.1
2018-08-20T16:01:26.726Z,8.6
2018-08-20T16:11:27.166Z,10.6
2018-08-20T16:21:26.574Z,13.7
2018-08-20T16:31:26.893Z,8.3
2018-08-20T16:41:27.921Z,7.8
2018-08-20T16:51:26.028Z,11.0
2018-08-20T17:01:26.886Z,10.2
2018-08-20T17:11:48.442Z,7.9
2018-08-20T17:21:27.798Z,11.2
2018-08-20T17:31:25.823Z,13.7
2018-08-20T17:41:27.146Z,13.5
2018-08-20T17:51:26.503Z,10.9
2018-08-20T18:01:29.296Z,9.5
2018-08-20T18:11:33.287Z,10.7
2018-08-20T18:21:26.015Z,8.1
2018-08-20T18:31:26.541Z,15.3
2018-08-20T18:41:47.219Z,14.8
2018-08-20T18:51:26.354Z,15.2
2018-08-20T19:01:26.409Z,13.2
2018-08-20T19:11:26.685Z,16.2
2018-08-20T19:21:27.181Z,13.5
2018-08-20T19:31:27.040Z,16.2
2018-08-20T19:41:32.177Z,17.3
2018-08-20T20:12:18.357Z,16.7
2018-08-20T20:21:31.545Z,13.7
2018-08-20T20:32:43.148Z,14.1
2018-08-20T20:41:31.736Z,15.7
2018-08-20T21:31:57.404Z,15.9
2018-08-20T21:41:32.188Z,12.0
2018-08-20T21:51:26.662Z,11.9
2018-08-20T22:11:33.188Z,15.1
2018-08-20T23:11:27.782Z,12.9
2018-08-20T23:21:32.342Z,12.0
2018-08-20T23:32:09.061Z,9.6
2018-08-20T23:41:33.275Z,15.5
